Time;durP1;ratioP1;P1;durP2;ratioP2;P2;SDS_P1;SDS_P2;PMS_P1;PMS_P2;Temp;Humidity;BMP_temperature;BMP_pressure;BME280_temperature;BME280_humidity;BME280_pressure;Samples;Min_cycle;Max_cycle;Signal;HPM_P1;HPM_P2
2022/11/12 00:00:25;;;;;;;1.60;1.50;;;;;;;7.20;57.25;102930.66;5018268;27;97347;-83
2022/11/12 00:02:50;;;;;;;4.63;1.20;;;;;;;7.14;57.58;102937.78;5010475;27;97896;-83
2022/11/12 00:05:16;;;;;;;1.00;1.00;;;;;;;7.11;57.80;102939.38;5021655;28;97412;-84
2022/11/12 00:07:42;;;;;;;1.10;1.00;;;;;;;7.08;57.63;102923.75;5017020;27;96742;-83
2022/11/12 00:10:08;;;;;;;0.90;0.87;;;;;;;7.00;57.80;102918.81;5018030;27;97018;-83
2022/11/12 00:12:33;;;;;;;1.20;1.10;;;;;;;6.97;57.88;102931.34;5024164;27;97000;-83
2022/11/12 00:14:59;;;;;;;1.70;1.20;;;;;;;7.01;57.52;102928.56;5038161;27;97249;-84
2022/11/12 00:17:25;;;;;;;0.73;0.73;;;;;;;6.97;57.65;102922.38;5025940;27;97614;-83
2022/11/12 00:19:50;;;;;;;0.80;0.80;;;;;;;6.91;57.30;102927.53;5023430;27;96686;-83
2022/11/12 00:22:16;;;;;;;1.70;1.40;;;;;;;6.86;57.70;102927.97;5019529;27;97941;-83
2022/11/12 00:24:41;;;;;;;1.03;1.03;;;;;;;6.83;57.49;102934.28;5032388;27;97382;-84
2022/11/12 00:27:06;;;;;;;1.07;0.83;;;;;;;6.79;57.51;102930.81;5012207;27;96898;-83
2022/11/12 00:29:32;;;;;;;1.20;1.10;;;;;;;6.73;57.65;102938.69;5023960;27;97387;-83
2022/11/12 00:31:57;;;;;;;1.43;1.33;;;;;;;6.70;57.56;102936.78;5020735;27;96910;-82
2022/11/12 00:34:23;;;;;;;1.20;1.10;;;;;;;6.70;57.85;102942.25;5020702;27;97360;-83
2022/11/12 00:36:48;;;;;;;2.07;1.10;;;;;;;6.69;57.88;102926.25;5024132;27;97541;-83
2022/11/12 00:39:14;;;;;;;1.30;1.30;;;;;;;6.62;57.58;102940.78;5007709;27;97037;-84
2022/11/12 00:41:39;;;;;;;0.90;0.90;;;;;;;6.61;57.56;102935.72;5028606;27;97257;-83
2022/11/12 00:44:05;;;;;;;1.20;1.10;;;;;;;6.54;57.66;102944.78;5020876;27;97219;-84
2022/11/12 00:46:30;;;;;;;1.30;1.20;;;;;;;6.51;57.85;102945.59;5025201;27;96794;-84
2022/11/12 00:48:55;;;;;;;1.20;1.10;;;;;;;6.46;57.68;102942.53;5042772;27;97313;-83
2022/11/12 00:51:21;;;;;;;1.50;1.40;;;;;;;6.43;57.82;102938.66;5026224;27;99824;-84
2022/11/12 00:53:48;;;;;;;1.50;1.40;;;;;;;6.42;57.70;102948.03;5021683;27;97084;-84
2022/11/12 00:56:13;;;;;;;2.00;1.07;;;;;;;6.39;57.87;102942.63;5015712;27;97196;-83
2022/11/12 00:58:39;;;;;;;1.10;1.00;;;;;;;6.36;57.79;102940.69;5020877;27;96806;-83
2022/11/12 01:01:07;;;;;;;1.33;1.23;;;;;;;6.34;57.49;102948.53;5023418;27;97498;-83
2022/11/12 01:03:33;;;;;;;2.27;1.13;;;;;;;6.28;57.55;102974.75;5043727;27;97591;-83
2022/11/12 01:06:06;;;;;;;1.77;1.30;;;;;;;6.23;57.96;102956.06;5023890;27;96990;-83
2022/11/12 01:08:32;;;;;;;1.47;1.37;;;;;;;6.20;57.76;102962.34;5020128;27;97471;-83
2022/11/12 01:11:12;;;;;;;1.20;1.10;;;;;;;6.19;58.04;102945.16;5012308;27;100553;-83
2022/11/12 01:13:40;;;;;;;1.33;1.23;;;;;;;6.13;57.48;102951.47;5028564;27;104410;-83
2022/11/12 01:16:07;;;;;;;1.10;1.00;;;;;;;6.00;57.83;102948.47;5042109;27;96998;-83
2022/11/12 01:18:33;;;;;;;2.03;1.47;;;;;;;5.90;57.75;102952.06;5026038;27;97105;-83
2022/11/12 01:21:02;;;;;;;2.40;1.40;;;;;;;5.82;57.96;102962.25;5023671;27;98082;-83
2022/11/12 01:23:28;;;;;;;1.80;1.57;;;;;;;5.78;58.16;102952.53;5022013;27;98428;-83
2022/11/12 01:25:54;;;;;;;1.60;1.50;;;;;;;5.80;58.18;102959.16;5032823;27;97312;-83
2022/11/12 01:28:19;;;;;;;1.30;1.20;;;;;;;5.80;57.92;102959.16;5008694;28;96889;-83
2022/11/12 01:30:44;;;;;;;1.60;1.50;;;;;;;5.78;58.16;102964.25;5013265;27;98874;-83
2022/11/12 01:33:10;;;;;;;3.17;1.50;;;;;;;5.79;57.88;102965.00;5023934;27;98056;-83
2022/11/12 01:35:35;;;;;;;2.70;1.40;;;;;;;5.81;58.02;102957.22;5022970;27;96749;-84
2022/11/12 01:38:01;;;;;;;1.07;0.97;;;;;;;5.82;58.30;102969.69;5006188;28;97513;-84
2022/11/12 01:40:26;;;;;;;1.27;1.17;;;;;;;5.82;58.08;102958.75;5026600;27;98219;-83
2022/11/12 01:42:52;;;;;;;1.20;1.10;;;;;;;5.82;58.25;102965.00;5043935;27;97886;-83
2022/11/12 01:45:19;;;;;;;1.47;1.37;;;;;;;5.80;57.73;102961.09;5034164;27;97254;-83
2022/11/12 01:47:50;;;;;;;2.30;1.20;;;;;;;5.77;57.75;102975.56;5022812;27;97124;-83
2022/11/12 01:50:32;;;;;;;5.80;1.23;;;;;;;5.73;57.91;102963.88;5011747;28;97559;-83
2022/11/12 01:53:05;;;;;;;1.17;1.03;;;;;;;5.67;57.95;102974.47;5018728;27;102045;-82
2022/11/12 01:55:35;;;;;;;1.43;1.33;;;;;;;5.68;58.25;102962.34;5032502;27;97093;-83
2022/11/12 01:58:13;;;;;;;1.50;1.40;;;;;;;5.70;58.37;102964.72;5031089;27;97209;-83
2022/11/12 02:00:42;;;;;;;1.60;1.50;;;;;;;5.71;58.34;102960.78;5011396;28;96785;-83
2022/11/12 02:03:14;;;;;;;2.07;1.30;;;;;;;5.69;58.05;102955.72;5029915;27;97379;-84
2022/11/12 02:05:41;;;;;;;2.57;2.37;;;;;;;5.67;58.11;102947.16;5025905;27;97139;-83
2022/11/12 02:08:09;;;;;;;1.57;1.03;;;;;;;5.65;57.98;102963.19;5027133;27;96666;-84
2022/11/12 02:10:38;;;;;;;2.90;1.40;;;;;;;5.66;58.16;102956.53;5013319;28;98946;-83
2022/11/12 02:15:48;;;;;;;2.73;1.33;;;;;;;5.64;58.21;102952.63;5029372;27;96829;-83
2022/11/12 02:18:14;;;;;;;1.77;1.67;;;;;;;5.63;58.11;102953.84;5015458;27;97347;-83
2022/11/12 02:20:40;;;;;;;2.40;1.70;;;;;;;5.63;57.90;102964.75;5030827;27;99343;-83
2022/11/12 02:23:06;;;;;;;2.13;1.93;;;;;;;5.60;57.87;102960.88;5015584;27;97345;-83
2022/11/12 02:25:33;;;;;;;1.50;1.40;;;;;;;5.57;58.42;102958.19;5010198;27;96896;-83
2022/11/12 02:28:01;;;;;;;2.30;2.10;;;;;;;5.51;58.06;102960.53;5028605;27;96881;-83
2022/11/12 02:30:36;;;;;;;2.40;1.70;;;;;;;5.52;58.20;102964.84;5021892;27;97071;-84
2022/11/12 02:33:02;;;;;;;6.07;2.27;;;;;;;5.52;58.02;102964.84;5018108;27;97258;-83
2022/11/12 02:35:28;;;;;;;1.60;1.50;;;;;;;5.51;58.30;102976.91;5033586;27;96588;-83
2022/11/12 02:37:54;;;;;;;2.30;2.10;;;;;;;5.49;57.90;102962.09;5024667;27;97162;-83
2022/11/12 02:40:19;;;;;;;1.80;1.70;;;;;;;5.49;58.33;102964.84;5020817;27;97382;-83
2022/11/12 02:42:44;;;;;;;2.40;2.20;;;;;;;5.45;58.49;102956.69;5034004;27;96946;-83
2022/11/12 02:45:10;;;;;;;2.97;2.77;;;;;;;5.42;58.19;102954.75;5043189;27;97352;-83
2022/11/12 02:47:36;;;;;;;2.03;1.93;;;;;;;5.42;58.23;102960.22;5025400;27;97356;-84
2022/11/12 02:50:02;;;;;;;2.90;2.20;;;;;;;5.41;58.30;102964.13;5035751;27;96745;-84
2022/11/12 02:52:27;;;;;;;2.17;1.90;;;;;;;5.37;58.20;102981.69;5023034;27;98251;-83
2022/11/12 02:54:53;;;;;;;1.93;1.83;;;;;;;5.34;58.47;102969.63;5027149;27;99121;-83
2022/11/12 02:57:18;;;;;;;2.67;2.47;;;;;;;5.29;57.89;102967.31;5021963;27;97340;-83
2022/11/12 02:59:44;;;;;;;2.47;2.30;;;;;;;5.26;58.27;102965.41;5024765;27;99589;-83
2022/11/12 03:02:09;;;;;;;2.30;2.10;;;;;;;5.21;58.22;102993.88;5017999;27;100039;-83
2022/11/12 03:04:35;;;;;;;2.53;2.10;;;;;;;5.17;58.15;102973.25;5019026;27;97059;-83
2022/11/12 03:07:00;;;;;;;2.03;1.93;;;;;;;5.11;58.18;102964.69;5038404;27;97627;-82
2022/11/12 03:09:25;;;;;;;2.40;2.20;;;;;;;5.10;58.08;102984.19;5011911;27;98674;-83
2022/11/12 03:11:51;;;;;;;3.00;2.47;;;;;;;5.07;58.28;102963.13;5019328;27;98178;-83
2022/11/12 03:14:17;;;;;;;4.53;2.03;;;;;;;5.07;58.37;102969.38;5019136;27;97020;-83
2022/11/12 03:16:42;;;;;;;5.90;2.23;;;;;;;5.11;58.07;102969.38;5025576;27;97352;-83
2022/11/12 03:19:07;;;;;;;2.00;1.90;;;;;;;5.07;57.84;102979.50;5014752;27;99831;-83
2022/11/12 03:21:33;;;;;;;3.17;2.40;;;;;;;5.01;58.11;102975.66;5012084;27;98552;-83
2022/11/12 03:24:00;;;;;;;2.70;2.03;;;;;;;4.89;58.18;103011.56;5031980;27;97222;-83
2022/11/12 03:26:26;;;;;;;2.00;1.90;;;;;;;4.78;58.31;102981.59;5010279;27;96999;-83
2022/11/12 03:28:51;;;;;;;2.30;2.10;;;;;;;4.77;58.46;102963.69;5007466;27;99779;-83
2022/11/12 03:31:17;;;;;;;3.00;2.20;;;;;;;4.81;58.00;103001.81;5018692;27;98987;-84
2022/11/12 03:33:43;;;;;;;3.20;2.00;;;;;;;4.73;58.46;102964.84;5026510;27;97129;-84
2022/11/12 03:36:08;;;;;;;2.30;2.10;;;;;;;4.69;58.48;102958.66;5019060;27;97640;-83
2022/11/12 03:38:34;;;;;;;3.20;2.77;;;;;;;4.69;58.55;102961.38;5039664;27;97641;-83
2022/11/12 03:40:59;;;;;;;6.43;2.53;;;;;;;4.63;58.76;102971.88;5023359;27;97275;-83
2022/11/12 03:43:25;;;;;;;2.90;2.60;;;;;;;4.61;58.50;102951.69;5027693;27;97296;-83
2022/11/12 03:45:50;;;;;;;2.57;2.37;;;;;;;4.65;58.77;102953.22;5034908;27;97491;-83
2022/11/12 03:48:16;;;;;;;2.80;2.40;;;;;;;4.67;58.53;102956.31;5016396;27;98831;-83
2022/11/12 03:50:41;;;;;;;2.90;2.50;;;;;;;4.67;58.73;102956.31;5033346;27;96911;-84
2022/11/12 03:53:07;;;;;;;2.70;2.47;;;;;;;4.66;58.83;102954.75;5041114;27;97133;-83
2022/11/12 03:55:32;;;;;;;4.00;2.57;;;;;;;4.70;58.56;102946.56;5023746;27;97501;-83
2022/11/12 03:57:58;;;;;;;2.80;2.63;;;;;;;4.70;58.22;102949.28;5036906;27;98938;-83
2022/11/12 04:00:26;;;;;;;2.80;2.60;;;;;;;4.66;58.67;102945.78;5027865;27;97501;-84
2022/11/12 04:02:51;;;;;;;2.70;2.50;;;;;;;4.65;58.38;102966.84;5038803;27;97129;-83
2022/11/12 04:10:49;;;;;;;2.00;1.90;;;;;;;4.51;58.67;102948.59;5036495;27;101220;-83
2022/11/12 04:13:27;;;;;;;2.57;2.37;;;;;;;4.49;58.38;102956.38;5026813;27;97005;-83
2022/11/12 04:21:49;;;;;;;2.63;2.43;;;;;;;4.40;58.55;102964.19;5033167;27;101273;-83
2022/11/12 04:27:13;;;;;;;3.30;2.37;;;;;;;4.38;58.76;102954.84;5040279;27;96930;-83
2022/11/12 04:32:24;;;;;;;2.40;2.20;;;;;;;4.29;58.71;102959.91;5038984;27;96932;-83
2022/11/12 04:34:50;;;;;;;2.97;2.37;;;;;;;4.22;58.52;102957.97;5030542;27;96806;-83
2022/11/12 04:37:16;;;;;;;3.67;2.10;;;;;;;4.24;58.66;102955.63;5017656;27;96679;-83
2022/11/12 04:39:42;;;;;;;2.70;2.50;;;;;;;4.22;58.70;102970.81;5025181;27;98213;-82
2022/11/12 04:45:00;;;;;;;2.33;2.20;;;;;;;4.21;58.51;102948.28;5038817;27;97085;-83
2022/11/12 04:47:34;;;;;;;3.77;2.70;;;;;;;4.19;58.70;102953.34;5019766;27;97232;-83
2022/11/12 04:50:00;;;;;;;2.23;2.13;;;;;;;4.20;58.49;102951.38;5006281;27;98156;-83
2022/11/12 04:52:27;;;;;;;2.60;2.40;;;;;;;4.19;58.67;102953.34;5008747;28;100921;-83
2022/11/12 04:54:53;;;;;;;3.93;2.40;;;;;;;4.17;58.27;102949.44;5006432;27;97914;-84
2022/11/12 04:57:19;;;;;;;2.77;2.53;;;;;;;4.12;58.45;102961.50;5024867;27;97265;-83
2022/11/12 04:59:45;;;;;;;2.10;2.00;;;;;;;4.00;58.64;102955.69;5041881;27;97997;-83
2022/11/12 05:02:11;;;;;;;2.57;2.17;;;;;;;3.89;58.56;102949.47;5031471;27;97312;-83
2022/11/12 05:04:36;;;;;;;4.20;2.60;;;;;;;3.86;58.65;102958.41;5022146;27;96824;-83
2022/11/12 05:07:02;;;;;;;2.50;2.30;;;;;;;3.92;58.86;102948.69;5044191;27;96834;-83
2022/11/12 05:09:28;;;;;;;2.57;2.37;;;;;;;3.92;58.83;102943.22;5043691;27;97962;-83
2022/11/12 05:11:54;;;;;;;2.23;1.97;;;;;;;3.93;58.75;102972.03;5019364;27;98481;-83
2022/11/12 05:14:21;;;;;;;2.50;2.30;;;;;;;3.95;58.80;102959.59;5020838;27;97118;-83
2022/11/12 05:16:47;;;;;;;2.63;2.47;;;;;;;3.97;58.81;102946.34;5035871;27;96914;-84
2022/11/12 05:19:13;;;;;;;2.93;2.53;;;;;;;3.96;58.89;102949.44;5042931;27;103884;-83
2022/11/12 05:24:23;;;;;;;2.43;2.20;;;;;;;3.97;58.72;102940.13;5038300;27;97090;-83
2022/11/12 05:26:49;;;;;;;2.10;1.90;;;;;;;4.01;58.86;102940.91;5010012;27;99057;-84
2022/11/12 05:29:15;;;;;;;4.53;2.93;;;;;;;4.02;58.89;102950.63;5010667;28;97152;-83
2022/11/12 05:31:40;;;;;;;2.70;2.50;;;;;;;4.04;59.08;102951.78;5007213;27;96950;-83
2022/11/12 05:34:06;;;;;;;2.80;2.20;;;;;;;4.03;58.80;102955.69;5025691;27;97468;-83
2022/11/12 05:36:32;;;;;;;2.83;2.63;;;;;;;4.00;58.54;102972.78;5026746;27;97804;-83
2022/11/12 05:38:58;;;;;;;3.37;2.77;;;;;;;3.99;58.39;102952.19;5042532;27;97153;-83
2022/11/12 05:41:24;;;;;;;2.70;2.50;;;;;;;3.98;58.77;102971.63;5026961;27;97002;-84
2022/11/12 05:43:49;;;;;;;2.47;2.27;;;;;;;3.97;58.66;102948.28;5022068;27;97260;-85
2022/11/12 05:46:14;;;;;;;1.90;1.80;;;;;;;3.90;58.75;102953.75;5028385;27;96878;-83
2022/11/12 05:48:40;;;;;;;2.70;2.50;;;;;;;3.81;58.67;102951.41;5033683;27;97710;-83
2022/11/12 05:51:05;;;;;;;3.60;2.20;;;;;;;3.82;59.03;102957.63;5027869;27;97738;-83
2022/11/12 05:53:31;;;;;;;4.37;2.60;;;;;;;3.76;58.73;102947.13;5026980;27;97002;-84
2022/11/12 05:56:01;;;;;;;2.40;2.20;;;;;;;3.69;58.95;102947.13;5046430;27;97180;-83
2022/11/12 05:58:27;;;;;;;2.27;2.13;;;;;;;3.63;58.99;102956.84;5041219;27;96839;-84
2022/11/12 06:00:52;;;;;;;2.77;2.57;;;;;;;3.59;59.24;102958.00;5037692;27;97877;-83
2022/11/12 06:03:18;;;;;;;2.13;2.03;;;;;;;3.60;59.26;102954.88;5022256;27;97154;-83
2022/11/12 06:05:43;;;;;;;3.43;2.30;;;;;;;3.64;59.47;102946.75;5006947;28;97011;-83
2022/11/12 06:08:09;;;;;;;2.60;2.43;;;;;;;3.62;58.99;102979.81;5018077;27;96842;-84
2022/11/12 06:10:34;;;;;;;2.60;2.40;;;;;;;3.57;59.29;102960.34;5023933;27;97364;-83
2022/11/12 06:13:00;;;;;;;3.47;2.30;;;;;;;3.56;59.27;102964.25;5041998;27;97208;-83
2022/11/12 06:15:26;;;;;;;1.93;1.80;;;;;;;3.61;59.10;102959.19;5027776;27;97253;-84
2022/11/12 06:17:52;;;;;;;2.73;2.53;;;;;;;3.60;59.18;102960.34;5021328;27;96932;-84
2022/11/12 06:20:19;;;;;;;2.40;2.20;;;;;;;3.65;59.31;102951.00;5021809;27;97139;-83
2022/11/12 06:22:45;;;;;;;3.03;2.37;;;;;;;3.70;59.24;102951.41;5030952;27;97285;-83
2022/11/12 06:25:10;;;;;;;2.67;2.50;;;;;;;3.70;59.36;102961.53;5026911;27;97176;-83
2022/11/12 06:27:36;;;;;;;2.60;2.40;;;;;;;3.68;59.07;102972.00;5022488;27;98661;-83
2022/11/12 06:30:03;;;;;;;2.20;2.00;;;;;;;3.62;59.19;102973.56;5027348;27;97050;-83
2022/11/12 06:32:29;;;;;;;3.07;2.47;;;;;;;3.59;59.47;102977.06;5031720;27;97306;-83
2022/11/12 06:34:54;;;;;;;2.37;2.20;;;;;;;3.63;59.31;102977.84;5038365;27;97452;-83
2022/11/12 06:37:20;;;;;;;7.70;2.33;;;;;;;3.63;59.50;102965.00;5040465;27;103268;-83
2022/11/12 06:39:47;;;;;;;3.00;2.33;;;;;;;3.61;59.24;102978.22;5018401;28;97471;-83
2022/11/12 06:42:12;;;;;;;2.50;2.30;;;;;;;3.53;59.34;102987.56;5025550;27;96958;-83
2022/11/12 06:44:38;;;;;;;2.07;1.97;;;;;;;3.49;59.31;102966.94;5041990;27;97202;-83
2022/11/12 06:47:03;;;;;;;2.10;2.00;;;;;;;3.47;59.45;102972.00;5023641;27;97653;-83
2022/11/12 06:49:29;;;;;;;2.60;2.40;;;;;;;3.41;59.70;102979.75;5020712;27;98707;-83
2022/11/12 06:51:54;;;;;;;2.27;2.17;;;;;;;3.46;59.57;102975.88;5027133;27;97357;-82
2022/11/12 06:54:20;;;;;;;2.43;2.23;;;;;;;3.52;59.33;102977.03;5021915;27;97248;-83
2022/11/12 06:56:45;;;;;;;3.37;2.30;;;;;;;3.45;59.28;102977.06;5023742;27;99910;-83
2022/11/12 06:59:11;;;;;;;2.40;2.20;;;;;;;3.45;59.39;102982.50;5045426;27;97334;-84
2022/11/12 07:01:36;;;;;;;2.80;2.60;;;;;;;3.49;59.66;103019.44;5018915;27;97257;-83
2022/11/12 07:04:02;;;;;;;2.30;2.20;;;;;;;3.59;59.40;102983.28;5023807;27;98685;-83
2022/11/12 07:06:27;;;;;;;3.93;2.50;;;;;;;3.63;59.46;102986.00;5023019;27;97932;-84
2022/11/12 07:08:53;;;;;;;3.53;2.97;;;;;;;3.70;59.51;102989.53;5020587;27;97151;-84
2022/11/12 07:11:19;;;;;;;2.53;2.30;;;;;;;3.74;59.37;102986.78;5023432;27;97305;-84
2022/11/12 07:13:45;;;;;;;9.00;3.27;;;;;;;3.76;59.51;102990.69;5036647;27;97472;-83
2022/11/12 07:16:12;;;;;;;2.40;2.30;;;;;;;3.78;59.59;102998.47;5023622;27;97198;-84
2022/11/12 07:18:39;;;;;;;2.90;2.63;;;;;;;3.76;59.41;103011.69;5033924;27;97338;-83
2022/11/12 07:21:07;;;;;;;2.47;2.37;;;;;;;3.71;59.50;103003.91;5038053;27;97200;-83
2022/11/12 07:23:35;;;;;;;2.27;2.07;;;;;;;3.72;59.59;102995.34;5023961;27;96896;-84
2022/11/12 07:26:02;;;;;;;2.13;1.90;;;;;;;3.80;59.81;103002.34;5022391;27;97303;-83
2022/11/12 07:28:29;;;;;;;2.43;2.23;;;;;;;3.85;59.69;103014.81;5039953;27;98252;-83
2022/11/12 07:30:59;;;;;;;2.03;1.93;;;;;;;3.89;59.49;103023.75;5025371;27;97651;-83
2022/11/12 07:33:25;;;;;;;3.00;2.20;;;;;;;3.93;59.43;103026.50;5014562;27;97003;-84
2022/11/12 07:36:08;;;;;;;2.73;2.53;;;;;;;3.95;59.88;103022.22;5032325;27;97426;-84
2022/11/12 07:38:36;;;;;;;2.27;1.73;;;;;;;3.96;59.73;103029.22;5016071;27;99582;-85
2022/11/12 07:41:04;;;;;;;2.93;2.60;;;;;;;4.00;59.65;103010.16;5026303;27;97257;-85
2022/11/12 07:43:31;;;;;;;2.70;2.50;;;;;;;4.07;59.38;103018.31;5040209;27;97307;-83
2022/11/12 07:46:17;;;;;;;2.50;2.30;;;;;;;4.11;59.59;103022.59;5027207;27;97433;-84
2022/11/12 07:48:43;;;;;;;2.33;2.10;;;;;;;4.18;59.82;103022.59;5041002;27;97502;-83
2022/11/12 07:51:19;;;;;;;3.53;2.50;;;;;;;4.23;59.61;103024.16;5019506;27;96933;-84
2022/11/12 07:53:46;;;;;;;3.40;1.87;;;;;;;4.18;59.50;103019.88;5037052;27;97429;-83
2022/11/12 07:56:15;;;;;;;2.10;2.00;;;;;;;4.17;59.58;103033.91;5026673;27;98153;-83
2022/11/12 07:58:41;;;;;;;2.83;2.23;;;;;;;4.21;59.80;103051.81;5025558;27;99459;-83
2022/11/12 08:01:26;;;;;;;1.93;1.83;;;;;;;4.23;59.54;103016.78;5038462;27;96884;-83
2022/11/12 08:03:51;;;;;;;2.37;2.13;;;;;;;4.26;59.53;103024.13;5005005;28;97068;-84
2022/11/12 08:06:17;;;;;;;2.90;2.33;;;;;;;4.30;59.92;103019.47;5004916;27;98438;-82
2022/11/12 08:08:42;;;;;;;3.17;2.17;;;;;;;4.41;59.97;103025.69;5025982;27;98191;-84
2022/11/12 08:11:08;;;;;;;1.80;1.67;;;;;;;4.49;59.71;103013.63;5026281;27;97256;-84
2022/11/12 08:13:33;;;;;;;2.90;1.83;;;;;;;4.56;59.70;103024.47;5024007;27;97263;-83
2022/11/12 08:15:59;;;;;;;1.90;1.80;;;;;;;4.66;59.84;103024.84;5023247;27;99031;-83
2022/11/12 08:18:26;;;;;;;1.93;1.83;;;;;;;4.79;59.69;103017.81;5022123;27;97842;-83
2022/11/12 08:20:52;;;;;;;2.50;2.30;;;;;;;4.95;59.60;103018.16;5039719;27;96677;-83
2022/11/12 08:23:18;;;;;;;5.77;2.27;;;;;;;4.98;59.66;103039.19;5024736;27;97417;-83
2022/11/12 08:25:43;;;;;;;2.30;2.10;;;;;;;5.01;59.79;103019.28;5016200;27;99199;-83
2022/11/12 08:28:09;;;;;;;2.17;1.87;;;;;;;5.14;59.66;103028.59;5024532;27;99229;-82
2022/11/12 08:30:35;;;;;;;1.80;1.70;;;;;;;5.24;59.81;103035.97;5013909;27;97254;-83
2022/11/12 08:33:05;;;;;;;2.60;2.00;;;;;;;5.24;59.90;103038.69;5029965;27;97346;-83
2022/11/12 08:35:31;;;;;;;3.40;2.30;;;;;;;5.23;59.89;103039.88;5019595;27;97089;-83
2022/11/12 08:38:01;;;;;;;1.87;1.73;;;;;;;5.32;60.17;103037.47;5041949;27;97778;-83
2022/11/12 08:40:28;;;;;;;2.23;2.00;;;;;;;5.41;59.95;103026.91;5038770;27;97133;-83
2022/11/12 08:43:01;;;;;;;2.17;1.87;;;;;;;5.51;59.99;103031.53;5024871;27;97041;-83
2022/11/12 08:45:27;;;;;;;2.00;1.90;;;;;;;5.48;59.77;103043.25;5033372;27;97243;-82
2022/11/12 08:47:58;;;;;;;2.00;1.80;;;;;;;5.42;60.07;103049.53;5013306;27;98552;-83
2022/11/12 08:50:24;;;;;;;3.77;1.90;;;;;;;5.42;60.06;103038.63;5017185;27;97130;-84
2022/11/12 08:52:49;;;;;;;2.00;1.90;;;;;;;5.53;60.06;103036.56;5031093;27;98496;-83
2022/11/12 08:55:14;;;;;;;1.70;1.57;;;;;;;5.63;60.07;103033.03;5029073;27;98857;-83
2022/11/12 08:57:42;;;;;;;1.53;1.43;;;;;;;5.64;59.79;103035.34;5022606;27;96849;-82
2022/11/12 09:00:10;;;;;;;1.90;1.80;;;;;;;5.66;60.06;103034.94;5022558;27;97100;-82
2022/11/12 09:02:36;;;;;;;2.40;1.83;;;;;;;5.71;60.39;103035.31;5031294;27;97136;-83
2022/11/12 09:05:01;;;;;;;2.60;2.00;;;;;;;5.80;60.20;103045.78;5032356;27;97933;-83
2022/11/12 09:07:27;;;;;;;2.27;2.17;;;;;;;5.83;60.15;103037.56;5014668;27;97688;-83
2022/11/12 09:09:53;;;;;;;1.80;1.70;;;;;;;5.84;60.25;103028.22;5014804;27;97010;-83
2022/11/12 09:12:18;;;;;;;2.50;2.30;;;;;;;5.92;60.22;103026.97;5031914;27;97203;-82
2022/11/12 09:14:45;;;;;;;2.00;1.90;;;;;;;5.99;60.33;103026.94;5020097;27;98892;-83
2022/11/12 09:17:11;;;;;;;2.13;1.90;;;;;;;6.07;60.30;103022.97;5038104;27;97464;-83
2022/11/12 09:19:37;;;;;;;3.10;1.97;;;;;;;6.19;60.37;103032.63;5027036;27;97113;-83
2022/11/12 09:22:02;;;;;;;1.50;1.40;;;;;;;6.22;60.30;103041.97;5027238;27;98250;-82
2022/11/12 09:24:28;;;;;;;2.23;1.87;;;;;;;6.23;60.31;103040.78;5022910;27;100055;-82
2022/11/12 09:26:54;;;;;;;2.57;1.90;;;;;;;6.25;60.54;103044.66;5046485;27;98210;-83
2022/11/12 09:29:19;;;;;;;1.80;1.70;;;;;;;6.29;60.78;103020.81;5026230;27;97080;-82
2022/11/12 09:31:45;;;;;;;2.40;2.20;;;;;;;6.44;60.41;103024.22;5030584;27;97312;-83
2022/11/12 09:34:10;;;;;;;1.40;1.40;;;;;;;6.53;60.47;103032.72;5022740;27;97361;-83
2022/11/12 09:36:36;;;;;;;1.87;1.77;;;;;;;6.47;60.31;103031.59;5024047;27;97414;-82
2022/11/12 09:39:02;;;;;;;1.77;1.67;;;;;;;6.57;60.50;103038.94;5029593;27;96948;-82
2022/11/12 09:41:33;;;;;;;2.43;1.60;;;;;;;6.66;60.46;103026.31;5036354;27;97292;-83
2022/11/12 09:44:05;;;;;;;2.80;1.80;;;;;;;6.79;60.71;103026.56;5039776;27;97280;-83
2022/11/12 09:46:39;;;;;;;2.10;1.90;;;;;;;6.90;60.30;103026.44;5041074;27;96777;-83
2022/11/12 09:49:25;;;;;;;5.53;1.87;;;;;;;6.96;61.03;103020.13;5015471;27;96964;-83
2022/11/12 09:52:11;;;;;;;3.47;1.97;;;;;;;7.04;60.26;103010.63;5019193;27;97112;-83
2022/11/12 09:54:36;;;;;;;2.60;2.50;;;;;;;7.06;60.13;103024.66;5014428;27;97453;-83
2022/11/12 09:57:02;;;;;;;2.90;2.57;;;;;;;7.08;60.51;103033.25;5036848;27;97805;-83
2022/11/12 09:59:31;;;;;;;5.07;1.90;;;;;;;7.14;60.43;103026.13;5007362;27;96850;-83
2022/11/12 10:02:24;;;;;;;2.10;2.00;;;;;;;7.24;61.06;103013.50;5024562;27;96929;-83
2022/11/12 10:05:02;;;;;;;2.10;1.83;;;;;;;7.34;61.29;103023.53;5054905;27;97096;-83
2022/11/12 10:07:57;;;;;;;2.27;2.07;;;;;;;7.39;61.24;103017.59;5059408;27;103034;-82
2022/11/12 10:10:31;;;;;;;3.10;2.90;;;;;;;7.43;60.90;103027.31;4968955;27;97420;-83
2022/11/12 10:13:37;;;;;;;3.00;2.57;;;;;;;7.50;61.44;103018.22;5022395;27;97242;-82
2022/11/12 10:16:41;;;;;;;3.13;2.37;;;;;;;7.57;61.54;103018.91;5042458;27;101198;-83
2022/11/12 10:19:27;;;;;;;2.53;2.33;;;;;;;7.69;61.08;103012.06;5023751;27;100622;-83
2022/11/12 10:22:23;;;;;;;3.00;2.80;;;;;;;7.78;61.63;103015.06;5035555;27;96785;-83
2022/11/12 10:24:49;;;;;;;4.30;2.83;;;;;;;7.90;60.87;103013.72;5037985;27;96987;-82
2022/11/12 10:27:20;;;;;;;4.10;3.30;;;;;;;8.00;60.80;103024.50;5026722;27;100401;-83
2022/11/12 10:30:05;;;;;;;3.30;2.90;;;;;;;8.10;61.86;103026.28;5042844;27;101601;-83
2022/11/12 10:32:31;;;;;;;2.43;2.23;;;;;;;8.15;61.12;103036.00;5020991;27;97187;-83
2022/11/12 10:34:56;;;;;;;3.30;2.50;;;;;;;8.22;61.07;103044.13;5015384;27;97257;-83
2022/11/12 10:37:41;;;;;;;9.23;4.47;;;;;;;8.35;62.40;103025.91;5017287;27;98688;-83
2022/11/12 10:40:36;;;;;;;7.17;3.07;;;;;;;8.48;62.10;103028.78;5015766;27;104394;-84
2022/11/12 10:43:20;;;;;;;2.97;2.57;;;;;;;8.57;62.30;103032.56;5023056;27;97212;-83
2022/11/12 10:45:48;;;;;;;3.20;2.97;;;;;;;8.68;61.31;103041.38;5018308;27;97473;-83
2022/11/12 10:48:31;;;;;;;2.80;2.57;;;;;;;8.80;62.05;103037.97;5018151;27;97632;-83
2022/11/12 10:50:57;;;;;;;6.97;4.20;;;;;;;8.88;61.50;103042.16;5017530;27;96982;-83
2022/11/12 10:53:34;;;;;;;4.70;3.13;;;;;;;9.02;62.19;103041.09;5021719;27;97117;-83
2022/11/12 10:56:03;;;;;;;4.23;3.13;;;;;;;9.14;61.58;103031.44;5023427;27;97039;-83
2022/11/12 10:58:28;;;;;;;4.30;3.67;;;;;;;9.24;61.59;103033.19;5010584;27;99860;-83
2022/11/12 11:00:56;;;;;;;3.87;2.60;;;;;;;9.34;61.64;103030.22;5021486;27;97317;-82
2022/11/12 11:03:35;;;;;;;8.90;5.70;;;;;;;9.44;62.48;103036.66;5025754;27;97185;-83
2022/11/12 11:06:04;;;;;;;3.80;3.03;;;;;;;9.51;61.75;103022.78;5039565;27;97399;-82
2022/11/12 11:08:35;;;;;;;3.83;2.50;;;;;;;9.65;61.85;103025.22;5019963;27;97645;-83
2022/11/12 11:11:15;;;;;;;2.57;2.37;;;;;;;9.80;62.05;103018.19;5021045;27;98530;-83
2022/11/12 11:13:42;;;;;;;2.33;2.17;;;;;;;9.94;61.40;103019.81;5019579;27;97083;-83
2022/11/12 11:16:14;;;;;;;2.27;2.17;;;;;;;10.05;61.57;103018.34;5027883;27;96744;-83
2022/11/12 11:18:41;;;;;;;1.87;1.77;;;;;;;10.13;61.45;103008.75;5025439;27;99094;-82
2022/11/12 11:21:13;;;;;;;2.17;1.97;;;;;;;10.22;61.67;103008.13;5018690;27;97596;-83
2022/11/12 11:23:56;;;;;;;3.37;2.20;;;;;;;10.33;61.63;103005.88;5047773;27;97289;-83
2022/11/12 11:26:33;;;;;;;3.23;2.93;;;;;;;10.50;61.56;103010.13;5043962;27;96847;-82
2022/11/12 11:29:19;;;;;;;3.63;2.80;;;;;;;10.68;62.51;103006.91;5042181;27;97393;-82
2022/11/12 11:32:24;;;;;;;2.43;2.20;;;;;;;10.81;62.72;103011.22;5039057;27;102011;-82
2022/11/12 11:35:24;;;;;;;4.13;2.30;;;;;;;10.98;62.36;103006.44;5040250;27;97686;-82
2022/11/12 11:37:59;;;;;;;3.17;2.40;;;;;;;11.17;61.84;102995.22;5039250;27;97029;-83
2022/11/12 11:40:29;;;;;;;2.80;2.23;;;;;;;11.38;61.49;102990.28;5025112;27;99859;-82
2022/11/12 11:43:04;;;;;;;3.63;2.33;;;;;;;11.58;61.11;102999.06;5019091;27;101228;-83
2022/11/12 11:45:35;;;;;;;5.33;2.30;;;;;;;11.70;61.11;102999.13;5027230;27;96948;-83
2022/11/12 11:48:07;;;;;;;12.03;6.93;;;;;;;11.83;61.50;103001.84;5019135;27;97271;-83
2022/11/12 11:50:36;;;;;;;8.73;4.50;;;;;;;12.06;61.16;102998.72;5019651;27;97475;-83
2022/11/12 11:53:04;;;;;;;5.17;3.90;;;;;;;12.36;60.95;102989.03;5024065;27;97667;-83
2022/11/12 11:55:33;;;;;;;4.30;3.60;;;;;;;12.57;60.94;102988.25;5022777;27;97336;-82
2022/11/12 11:58:12;;;;;;;4.07;3.37;;;;;;;12.75;61.03;102985.63;5041608;27;97122;-82
2022/11/12 12:00:52;;;;;;;3.30;2.70;;;;;;;12.90;61.10;102994.16;5038601;27;100581;-82
2022/11/12 12:03:25;;;;;;;2.60;2.40;;;;;;;12.92;60.56;102980.66;5042930;27;100774;-82